sensor_id;sensor_type;location;lat;lon;timestamp;temperature;humidity
20712;DHT22;10517;50.742;4.224;2023-11-22T00:02:01;7.60;99.90
20712;DHT22;10517;50.742;4.224;2023-11-22T00:04:27;7.60;99.90
20712;DHT22;10517;50.742;4.224;2023-11-22T00:06:53;7.50;99.90
20712;DHT22;10517;50.742;4.224;2023-11-22T00:09:18;7.60;99.90
20712;DHT22;10517;50.742;4.224;2023-11-22T00:11:47;7.60;99.90
20712;DHT22;10517;50.742;4.224;2023-11-22T00:14:13;7.60;99.90
20712;DHT22;10517;50.742;4.224;2023-11-22T00:16:38;7.50;99.90
20712;DHT22;10517;50.742;4.224;2023-11-22T00:19:05;7.50;99.90
20712;DHT22;10517;50.742;4.224;2023-11-22T00:21:31;7.50;99.90
20712;DHT22;10517;50.742;4.224;2023-11-22T00:23:57;7.50;99.90
20712;DHT22;10517;50.742;4.224;2023-11-22T00:26:23;7.50;99.90
20712;DHT22;10517;50.742;4.224;2023-11-22T00:28:48;7.50;99.90
20712;DHT22;10517;50.742;4.224;2023-11-22T00:31:15;7.50;99.90
20712;DHT22;10517;50.742;4.224;2023-11-22T00:33:40;7.40;99.90
20712;DHT22;10517;50.742;4.224;2023-11-22T00:36:06;7.40;99.90
20712;DHT22;10517;50.742;4.224;2023-11-22T00:38:34;7.40;99.90
20712;DHT22;10517;50.742;4.224;2023-11-22T00:41:02;7.40;99.90
20712;DHT22;10517;50.742;4.224;2023-11-22T00:43:28;7.50;99.90
20712;DHT22;10517;50.742;4.224;2023-11-22T00:45:53;7.40;99.90
20712;DHT22;10517;50.742;4.224;2023-11-22T00:48:19;7.30;99.90
20712;DHT22;10517;50.742;4.224;2023-11-22T00:50:44;7.20;99.90
20712;DHT22;10517;50.742;4.224;2023-11-22T00:53:10;7.20;99.90
20712;DHT22;10517;50.742;4.224;2023-11-22T00:55:36;7.30;99.90
20712;DHT22;10517;50.742;4.224;2023-11-22T00:58:01;7.30;99.90
20712;DHT22;10517;50.742;4.224;2023-11-22T01:00:30;7.30;99.90
20712;DHT22;10517;50.742;4.224;2023-11-22T01:02:56;7.20;99.90
20712;DHT22;10517;50.742;4.224;2023-11-22T01:05:21;7.20;99.90
20712;DHT22;10517;50.742;4.224;2023-11-22T01:07:48;7.20;99.90
20712;DHT22;10517;50.742;4.224;2023-11-22T01:10:14;7.20;99.90
20712;DHT22;10517;50.742;4.224;2023-11-22T01:12:40;7.20;99.90
20712;DHT22;10517;50.742;4.224;2023-11-22T01:15:07;7.20;99.90
20712;DHT22;10517;50.742;4.224;2023-11-22T01:17:34;7.20;99.90
20712;DHT22;10517;50.742;4.224;2023-11-22T01:20:00;7.20;99.90
20712;DHT22;10517;50.742;4.224;2023-11-22T01:22:26;7.20;99.90
20712;DHT22;10517;50.742;4.224;2023-11-22T01:24:51;7.20;99.90
20712;DHT22;10517;50.742;4.224;2023-11-22T01:27:17;7.20;99.90
20712;DHT22;10517;50.742;4.224;2023-11-22T01:29:42;7.20;99.90
20712;DHT22;10517;50.742;4.224;2023-11-22T01:32:08;7.10;99.90
20712;DHT22;10517;50.742;4.224;2023-11-22T01:34:34;7.00;99.90
20712;DHT22;10517;50.742;4.224;2023-11-22T01:37:00;7.00;99.90
20712;DHT22;10517;50.742;4.224;2023-11-22T01:39:26;7.00;99.90
20712;DHT22;10517;50.742;4.224;2023-11-22T01:41:52;6.90;99.90
20712;DHT22;10517;50.742;4.224;2023-11-22T01:44:17;7.00;99.90
20712;DHT22;10517;50.742;4.224;2023-11-22T01:46:43;7.00;99.90
20712;DHT22;10517;50.742;4.224;2023-11-22T01:49:10;7.00;99.90
20712;DHT22;10517;50.742;4.224;2023-11-22T01:51:37;7.10;99.90
20712;DHT22;10517;50.742;4.224;2023-11-22T01:54:04;7.10;99.90
20712;DHT22;10517;50.742;4.224;2023-11-22T01:56:30;7.20;99.90
20712;DHT22;10517;50.742;4.224;2023-11-22T01:58:57;7.30;99.90
20712;DHT22;10517;50.742;4.224;2023-11-22T02:01:23;7.40;99.90
20712;DHT22;10517;50.742;4.224;2023-11-22T02:03:49;7.50;99.90
20712;DHT22;10517;50.742;4.224;2023-11-22T02:06:17;7.40;99.90
20712;DHT22;10517;50.742;4.224;2023-11-22T02:08:43;7.40;99.90
20712;DHT22;10517;50.742;4.224;2023-11-22T02:11:09;7.40;99.90
20712;DHT22;10517;50.742;4.224;2023-11-22T02:13:34;7.40;99.90
20712;DHT22;10517;50.742;4.224;2023-11-22T02:16:02;7.50;99.90
20712;DHT22;10517;50.742;4.224;2023-11-22T02:18:28;7.40;99.90
20712;DHT22;10517;50.742;4.224;2023-11-22T02:20:55;7.30;99.90
20712;DHT22;10517;50.742;4.224;2023-11-22T02:23:20;7.30;99.90
20712;DHT22;10517;50.742;4.224;2023-11-22T02:25:47;7.30;99.90
20712;DHT22;10517;50.742;4.224;2023-11-22T02:28:12;7.30;99.90
20712;DHT22;10517;50.742;4.224;2023-11-22T02:30:38;7.10;99.90
20712;DHT22;10517;50.742;4.224;2023-11-22T02:33:04;7.10;99.90
20712;DHT22;10517;50.742;4.224;2023-11-22T02:35:33;7.10;99.90
20712;DHT22;10517;50.742;4.224;2023-11-22T02:37:59;7.10;99.90
20712;DHT22;10517;50.742;4.224;2023-11-22T02:40:25;7.00;99.90
20712;DHT22;10517;50.742;4.224;2023-11-22T02:42:52;7.00;99.90
20712;DHT22;10517;50.742;4.224;2023-11-22T02:45:30;7.00;99.90
20712;DHT22;10517;50.742;4.224;2023-11-22T02:47:56;6.90;99.90
20712;DHT22;10517;50.742;4.224;2023-11-22T02:50:22;6.90;99.90
20712;DHT22;10517;50.742;4.224;2023-11-22T02:52:47;6.90;99.90
20712;DHT22;10517;50.742;4.224;2023-11-22T02:55:13;6.90;99.90
20712;DHT22;10517;50.742;4.224;2023-11-22T02:57:40;6.90;99.90
20712;DHT22;10517;50.742;4.224;2023-11-22T03:00:06;6.80;99.90
20712;DHT22;10517;50.742;4.224;2023-11-22T03:02:33;6.80;99.90
20712;DHT22;10517;50.742;4.224;2023-11-22T03:04:59;6.70;99.90
20712;DHT22;10517;50.742;4.224;2023-11-22T03:07:29;6.70;99.90
20712;DHT22;10517;50.742;4.224;2023-11-22T03:09:54;6.70;99.90
20712;DHT22;10517;50.742;4.224;2023-11-22T03:12:21;6.60;99.90
20712;DHT22;10517;50.742;4.224;2023-11-22T03:14:47;6.60;99.90
20712;DHT22;10517;50.742;4.224;2023-11-22T03:17:14;6.40;99.90
20712;DHT22;10517;50.742;4.224;2023-11-22T03:19:40;6.40;99.90
20712;DHT22;10517;50.742;4.224;2023-11-22T03:22:06;6.30;99.90
20712;DHT22;10517;50.742;4.224;2023-11-22T03:24:32;6.30;99.90
20712;DHT22;10517;50.742;4.224;2023-11-22T03:27:02;6.30;99.90
20712;DHT22;10517;50.742;4.224;2023-11-22T03:29:28;6.30;99.90
20712;DHT22;10517;50.742;4.224;2023-11-22T03:31:54;6.20;99.90
20712;DHT22;10517;50.742;4.224;2023-11-22T03:34:20;6.20;99.90
20712;DHT22;10517;50.742;4.224;2023-11-22T03:36:46;6.20;99.90
20712;DHT22;10517;50.742;4.224;2023-11-22T03:39:11;6.30;99.90
20712;DHT22;10517;50.742;4.224;2023-11-22T03:41:37;6.30;99.90
20712;DHT22;10517;50.742;4.224;2023-11-22T03:44:04;6.40;99.90
20712;DHT22;10517;50.742;4.224;2023-11-22T03:46:34;6.40;99.90
20712;DHT22;10517;50.742;4.224;2023-11-22T03:49:00;6.30;99.90
20712;DHT22;10517;50.742;4.224;2023-11-22T03:51:26;6.30;99.90
20712;DHT22;10517;50.742;4.224;2023-11-22T03:53:52;6.20;99.90
20712;DHT22;10517;50.742;4.224;2023-11-22T03:56:18;6.20;99.90
20712;DHT22;10517;50.742;4.224;2023-11-22T03:58:44;6.10;99.90
20712;DHT22;10517;50.742;4.224;2023-11-22T04:01:10;6.20;99.90
20712;DHT22;10517;50.742;4.224;2023-11-22T04:03:35;6.20;99.90
20712;DHT22;10517;50.742;4.224;2023-11-22T04:06:01;6.20;99.90
20712;DHT22;10517;50.742;4.224;2023-11-22T04:08:27;6.30;99.90
20712;DHT22;10517;50.742;4.224;2023-11-22T04:10:53;6.30;99.90
20712;DHT22;10517;50.742;4.224;2023-11-22T04:13:18;6.30;99.90
20712;DHT22;10517;50.742;4.224;2023-11-22T04:15:44;6.20;99.90
20712;DHT22;10517;50.742;4.224;2023-11-22T04:18:10;6.20;99.90
20712;DHT22;10517;50.742;4.224;2023-11-22T04:20:35;6.30;99.90
20712;DHT22;10517;50.742;4.224;2023-11-22T04:23:01;6.30;99.90
20712;DHT22;10517;50.742;4.224;2023-11-22T04:25:26;6.20;99.90
20712;DHT22;10517;50.742;4.224;2023-11-22T04:27:52;6.30;99.90
20712;DHT22;10517;50.742;4.224;2023-11-22T04:30:18;6.30;99.90
20712;DHT22;10517;50.742;4.224;2023-11-22T04:32:44;6.20;99.90
20712;DHT22;10517;50.742;4.224;2023-11-22T04:35:13;6.30;99.90
20712;DHT22;10517;50.742;4.224;2023-11-22T04:37:39;6.30;99.90
20712;DHT22;10517;50.742;4.224;2023-11-22T04:40:06;6.20;99.90
20712;DHT22;10517;50.742;4.224;2023-11-22T04:42:37;6.10;99.90
20712;DHT22;10517;50.742;4.224;2023-11-22T04:45:03;6.10;99.90
20712;DHT22;10517;50.742;4.224;2023-11-22T04:47:29;6.10;99.90
20712;DHT22;10517;50.742;4.224;2023-11-22T04:49:54;6.20;99.90
20712;DHT22;10517;50.742;4.224;2023-11-22T04:52:20;6.20;99.90
20712;DHT22;10517;50.742;4.224;2023-11-22T04:54:45;6.10;99.90
20712;DHT22;10517;50.742;4.224;2023-11-22T04:57:11;6.20;99.90
20712;DHT22;10517;50.742;4.224;2023-11-22T04:59:37;6.20;99.90
20712;DHT22;10517;50.742;4.224;2023-11-22T05:02:04;6.20;99.90
20712;DHT22;10517;50.742;4.224;2023-11-22T05:04:29;6.30;99.90
20712;DHT22;10517;50.742;4.224;2023-11-22T05:06:55;6.40;99.90
20712;DHT22;10517;50.742;4.224;2023-11-22T05:09:21;6.40;99.90
20712;DHT22;10517;50.742;4.224;2023-11-22T05:11:46;6.40;99.90
20712;DHT22;10517;50.742;4.224;2023-11-22T05:14:12;6.40;99.90
20712;DHT22;10517;50.742;4.224;2023-11-22T05:16:38;6.50;99.90
20712;DHT22;10517;50.742;4.224;2023-11-22T05:19:04;6.50;99.90
20712;DHT22;10517;50.742;4.224;2023-11-22T05:21:29;6.50;99.90
20712;DHT22;10517;50.742;4.224;2023-11-22T05:23:55;6.60;99.90
20712;DHT22;10517;50.742;4.224;2023-11-22T05:26:21;6.70;99.90
20712;DHT22;10517;50.742;4.224;2023-11-22T05:28:50;6.80;99.90
20712;DHT22;10517;50.742;4.224;2023-11-22T05:31:16;6.80;99.90
20712;DHT22;10517;50.742;4.224;2023-11-22T05:33:41;6.70;99.90
20712;DHT22;10517;50.742;4.224;2023-11-22T05:36:08;6.70;99.90
20712;DHT22;10517;50.742;4.224;2023-11-22T05:38:34;6.80;99.90
20712;DHT22;10517;50.742;4.224;2023-11-22T05:41:00;6.70;99.90
20712;DHT22;10517;50.742;4.224;2023-11-22T05:43:26;6.70;99.90
20712;DHT22;10517;50.742;4.224;2023-11-22T05:45:55;6.70;99.90
20712;DHT22;10517;50.742;4.224;2023-11-22T05:48:21;6.70;99.90
20712;DHT22;10517;50.742;4.224;2023-11-22T05:50:47;6.70;99.90
20712;DHT22;10517;50.742;4.224;2023-11-22T05:53:13;6.70;99.90
20712;DHT22;10517;50.742;4.224;2023-11-22T05:55:48;6.70;99.90
20712;DHT22;10517;50.742;4.224;2023-11-22T05:58:14;6.70;99.90
20712;DHT22;10517;50.742;4.224;2023-11-22T06:00:46;6.60;99.90
20712;DHT22;10517;50.742;4.224;2023-11-22T06:03:13;6.50;99.90
20712;DHT22;10517;50.742;4.224;2023-11-22T06:05:41;6.50;99.90
20712;DHT22;10517;50.742;4.224;2023-11-22T06:08:07;6.50;99.90
20712;DHT22;10517;50.742;4.224;2023-11-22T06:10:34;6.50;99.90
20712;DHT22;10517;50.742;4.224;2023-11-22T06:13:00;6.40;99.90
20712;DHT22;10517;50.742;4.224;2023-11-22T06:15:25;6.50;99.90
20712;DHT22;10517;50.742;4.224;2023-11-22T06:17:51;6.50;99.90
20712;DHT22;10517;50.742;4.224;2023-11-22T06:20:17;6.60;99.90
20712;DHT22;10517;50.742;4.224;2023-11-22T06:22:42;6.70;99.90
20712;DHT22;10517;50.742;4.224;2023-11-22T06:25:09;6.70;99.90
20712;DHT22;10517;50.742;4.224;2023-11-22T06:27:36;6.60;99.90
20712;DHT22;10517;50.742;4.224;2023-11-22T06:30:01;6.70;99.90
20712;DHT22;10517;50.742;4.224;2023-11-22T06:32:28;6.70;99.90
20712;DHT22;10517;50.742;4.224;2023-11-22T06:34:54;6.70;99.90
20712;DHT22;10517;50.742;4.224;2023-11-22T06:37:20;6.80;99.90
20712;DHT22;10517;50.742;4.224;2023-11-22T06:39:46;6.90;99.90
20712;DHT22;10517;50.742;4.224;2023-11-22T06:42:12;6.90;99.90
20712;DHT22;10517;50.742;4.224;2023-11-22T06:44:39;6.90;99.90
20712;DHT22;10517;50.742;4.224;2023-11-22T06:47:06;6.80;99.90
20712;DHT22;10517;50.742;4.224;2023-11-22T06:49:33;6.70;99.90
20712;DHT22;10517;50.742;4.224;2023-11-22T06:51:58;6.60;99.90
20712;DHT22;10517;50.742;4.224;2023-11-22T06:54:24;6.60;99.90
20712;DHT22;10517;50.742;4.224;2023-11-22T06:56:49;6.70;99.90
20712;DHT22;10517;50.742;4.224;2023-11-22T06:59:16;6.70;99.90
20712;DHT22;10517;50.742;4.224;2023-11-22T07:01:43;6.70;99.90
20712;DHT22;10517;50.742;4.224;2023-11-22T07:04:08;6.80;99.90
20712;DHT22;10517;50.742;4.224;2023-11-22T07:06:35;6.90;99.90
20712;DHT22;10517;50.742;4.224;2023-11-22T07:09:03;7.00;99.90
20712;DHT22;10517;50.742;4.224;2023-11-22T07:11:29;7.00;99.90
20712;DHT22;10517;50.742;4.224;2023-11-22T07:13:56;7.00;99.90
20712;DHT22;10517;50.742;4.224;2023-11-22T07:16:23;7.00;99.90
20712;DHT22;10517;50.742;4.224;2023-11-22T07:18:50;6.90;99.90
20712;DHT22;10517;50.742;4.224;2023-11-22T07:21:16;6.90;99.90
20712;DHT22;10517;50.742;4.224;2023-11-22T07:23:42;6.90;99.90
20712;DHT22;10517;50.742;4.224;2023-11-22T07:26:10;6.90;99.90
20712;DHT22;10517;50.742;4.224;2023-11-22T07:28:36;7.00;99.90
20712;DHT22;10517;50.742;4.224;2023-11-22T07:31:02;7.00;99.90
20712;DHT22;10517;50.742;4.224;2023-11-22T07:33:31;7.10;99.90
20712;DHT22;10517;50.742;4.224;2023-11-22T07:35:56;7.10;99.90
20712;DHT22;10517;50.742;4.224;2023-11-22T07:38:24;7.00;99.90
20712;DHT22;10517;50.742;4.224;2023-11-22T07:40:50;7.10;99.90
20712;DHT22;10517;50.742;4.224;2023-11-22T07:43:16;7.10;99.90
20712;DHT22;10517;50.742;4.224;2023-11-22T07:45:42;7.10;99.90
20712;DHT22;10517;50.742;4.224;2023-11-22T07:48:10;7.00;99.90
20712;DHT22;10517;50.742;4.224;2023-11-22T07:50:38;7.00;99.90
20712;DHT22;10517;50.742;4.224;2023-11-22T07:53:04;7.00;99.90
20712;DHT22;10517;50.742;4.224;2023-11-22T07:55:30;7.00;99.90
20712;DHT22;10517;50.742;4.224;2023-11-22T07:57:56;7.00;99.90
20712;DHT22;10517;50.742;4.224;2023-11-22T08:00:22;7.10;99.90
20712;DHT22;10517;50.742;4.224;2023-11-22T08:02:49;7.20;99.90
20712;DHT22;10517;50.742;4.224;2023-11-22T08:05:15;7.10;99.90
20712;DHT22;10517;50.742;4.224;2023-11-22T08:07:42;7.20;99.90
20712;DHT22;10517;50.742;4.224;2023-11-22T08:10:10;7.10;99.90
20712;DHT22;10517;50.742;4.224;2023-11-22T08:12:43;6.90;99.90
20712;DHT22;10517;50.742;4.224;2023-11-22T08:15:10;6.90;99.90
20712;DHT22;10517;50.742;4.224;2023-11-22T08:17:38;7.00;99.90
20712;DHT22;10517;50.742;4.224;2023-11-22T08:20:05;7.10;99.90
20712;DHT22;10517;50.742;4.224;2023-11-22T08:22:32;7.20;99.90
20712;DHT22;10517;50.742;4.224;2023-11-22T08:25:02;7.40;99.90
20712;DHT22;10517;50.742;4.224;2023-11-22T08:27:28;7.40;99.90
20712;DHT22;10517;50.742;4.224;2023-11-22T08:29:54;7.40;99.90
20712;DHT22;10517;50.742;4.224;2023-11-22T08:32:20;7.40;99.90
20712;DHT22;10517;50.742;4.224;2023-11-22T08:34:49;7.40;99.90
20712;DHT22;10517;50.742;4.224;2023-11-22T08:37:15;7.50;99.90
20712;DHT22;10517;50.742;4.224;2023-11-22T08:39:41;7.50;99.90
20712;DHT22;10517;50.742;4.224;2023-11-22T08:42:07;7.50;99.90
20712;DHT22;10517;50.742;4.224;2023-11-22T08:44:37;7.60;99.90
20712;DHT22;10517;50.742;4.224;2023-11-22T08:47:03;7.70;99.90
20712;DHT22;10517;50.742;4.224;2023-11-22T08:49:29;7.70;99.90
20712;DHT22;10517;50.742;4.224;2023-11-22T08:51:56;7.80;99.90
20712;DHT22;10517;50.742;4.224;2023-11-22T08:54:22;7.90;99.90
20712;DHT22;10517;50.742;4.224;2023-11-22T08:56:47;8.00;99.90
20712;DHT22;10517;50.742;4.224;2023-11-22T08:59:13;8.20;99.90
20712;DHT22;10517;50.742;4.224;2023-11-22T09:01:39;8.20;99.90
20712;DHT22;10517;50.742;4.224;2023-11-22T09:04:06;8.10;99.90
20712;DHT22;10517;50.742;4.224;2023-11-22T09:06:33;8.10;99.90
20712;DHT22;10517;50.742;4.224;2023-11-22T09:09:00;8.10;99.90
20712;DHT22;10517;50.742;4.224;2023-11-22T09:11:26;8.10;99.90
20712;DHT22;10517;50.742;4.224;2023-11-22T09:13:51;8.20;99.90
20712;DHT22;10517;50.742;4.224;2023-11-22T09:16:22;8.10;99.90
20712;DHT22;10517;50.742;4.224;2023-11-22T09:18:50;8.10;99.90
20712;DHT22;10517;50.742;4.224;2023-11-22T09:21:16;8.00;99.90
20712;DHT22;10517;50.742;4.224;2023-11-22T09:23:42;8.20;99.90
20712;DHT22;10517;50.742;4.224;2023-11-22T09:26:08;8.20;99.90
20712;DHT22;10517;50.742;4.224;2023-11-22T09:28:34;8.40;99.90
20712;DHT22;10517;50.742;4.224;2023-11-22T09:30:59;8.50;99.90
20712;DHT22;10517;50.742;4.224;2023-11-22T09:33:31;8.60;99.90
20712;DHT22;10517;50.742;4.224;2023-11-22T09:35:57;8.50;99.90
20712;DHT22;10517;50.742;4.224;2023-11-22T09:38:23;8.50;99.90
20712;DHT22;10517;50.742;4.224;2023-11-22T09:40:49;8.60;99.90
20712;DHT22;10517;50.742;4.224;2023-11-22T09:43:16;8.50;99.90
20712;DHT22;10517;50.742;4.224;2023-11-22T09:45:47;8.50;99.90
20712;DHT22;10517;50.742;4.224;2023-11-22T09:48:21;8.60;99.90
20712;DHT22;10517;50.742;4.224;2023-11-22T09:53:40;8.60;99.90
20712;DHT22;10517;50.742;4.224;2023-11-22T09:56:08;8.70;99.90
20712;DHT22;10517;50.742;4.224;2023-11-22T09:58:35;8.60;99.90
20712;DHT22;10517;50.742;4.224;2023-11-22T10:01:05;8.30;99.90
20712;DHT22;10517;50.742;4.224;2023-11-22T10:03:31;8.20;99.90
20712;DHT22;10517;50.742;4.224;2023-11-22T10:05:57;8.10;99.90
20712;DHT22;10517;50.742;4.224;2023-11-22T10:08:27;8.20;99.90
20712;DHT22;10517;50.742;4.224;2023-11-22T10:10:54;8.30;99.90
20712;DHT22;10517;50.742;4.224;2023-11-22T10:13:20;8.30;99.90
20712;DHT22;10517;50.742;4.224;2023-11-22T10:15:47;8.20;99.90
20712;DHT22;10517;50.742;4.224;2023-11-22T10:18:13;8.30;99.90
20712;DHT22;10517;50.742;4.224;2023-11-22T10:20:41;8.40;99.90
20712;DHT22;10517;50.742;4.224;2023-11-22T10:23:10;8.30;99.90
20712;DHT22;10517;50.742;4.224;2023-11-22T10:25:44;8.40;99.90
20712;DHT22;10517;50.742;4.224;2023-11-22T10:28:10;8.60;99.90
20712;DHT22;10517;50.742;4.224;2023-11-22T10:30:35;8.80;99.90
20712;DHT22;10517;50.742;4.224;2023-11-22T10:33:02;9.00;99.90
20712;DHT22;10517;50.742;4.224;2023-11-22T10:35:28;9.20;99.90
20712;DHT22;10517;50.742;4.224;2023-11-22T10:37:54;9.00;99.90
20712;DHT22;10517;50.742;4.224;2023-11-22T10:40:20;9.10;99.90
20712;DHT22;10517;50.742;4.224;2023-11-22T10:42:48;9.10;99.90
20712;DHT22;10517;50.742;4.224;2023-11-22T10:45:17;9.20;99.90
20712;DHT22;10517;50.742;4.224;2023-11-22T10:47:44;9.40;99.90
20712;DHT22;10517;50.742;4.224;2023-11-22T10:50:11;9.50;99.90
20712;DHT22;10517;50.742;4.224;2023-11-22T10:52:41;9.70;99.90
20712;DHT22;10517;50.742;4.224;2023-11-22T10:55:10;9.80;99.90
20712;DHT22;10517;50.742;4.224;2023-11-22T10:57:44;9.90;99.90
20712;DHT22;10517;50.742;4.224;2023-11-22T11:00:11;9.90;99.90
20712;DHT22;10517;50.742;4.224;2023-11-22T11:02:45;9.90;99.90
20712;DHT22;10517;50.742;4.224;2023-11-22T11:05:16;9.80;99.90
20712;DHT22;10517;50.742;4.224;2023-11-22T11:07:49;9.80;99.90
20712;DHT22;10517;50.742;4.224;2023-11-22T11:10:19;9.90;99.90
20712;DHT22;10517;50.742;4.224;2023-11-22T11:12:46;9.60;99.90
20712;DHT22;10517;50.742;4.224;2023-11-22T11:15:12;9.60;99.90
20712;DHT22;10517;50.742;4.224;2023-11-22T11:17:38;9.60;99.90
20712;DHT22;10517;50.742;4.224;2023-11-22T11:20:05;9.80;99.90
20712;DHT22;10517;50.742;4.224;2023-11-22T11:22:36;9.80;99.90
20712;DHT22;10517;50.742;4.224;2023-11-22T11:25:04;9.20;99.90
20712;DHT22;10517;50.742;4.224;2023-11-22T11:27:33;9.00;99.90
20712;DHT22;10517;50.742;4.224;2023-11-22T11:30:01;9.40;99.90
20712;DHT22;10517;50.742;4.224;2023-11-22T11:32:33;9.80;99.90
20712;DHT22;10517;50.742;4.224;2023-11-22T11:34:59;10.00;99.90
20712;DHT22;10517;50.742;4.224;2023-11-22T11:37:29;10.20;99.90
20712;DHT22;10517;50.742;4.224;2023-11-22T11:39:55;10.10;99.90
20712;DHT22;10517;50.742;4.224;2023-11-22T11:42:20;10.00;99.90
20712;DHT22;10517;50.742;4.224;2023-11-22T11:45:06;10.00;99.90
20712;DHT22;10517;50.742;4.224;2023-11-22T11:47:33;10.00;99.90
20712;DHT22;10517;50.742;4.224;2023-11-22T11:49:59;10.00;99.90
20712;DHT22;10517;50.742;4.224;2023-11-22T11:52:27;10.00;99.90
20712;DHT22;10517;50.742;4.224;2023-11-22T11:54:54;10.00;99.90
20712;DHT22;10517;50.742;4.224;2023-11-22T11:57:21;9.90;99.90
20712;DHT22;10517;50.742;4.224;2023-11-22T11:59:47;10.00;99.90
20712;DHT22;10517;50.742;4.224;2023-11-22T12:02:15;9.90;99.90
20712;DHT22;10517;50.742;4.224;2023-11-22T12:04:41;10.00;99.90
20712;DHT22;10517;50.742;4.224;2023-11-22T12:07:11;10.10;99.90
20712;DHT22;10517;50.742;4.224;2023-11-22T12:09:37;10.10;99.90
20712;DHT22;10517;50.742;4.224;2023-11-22T12:12:03;10.30;99.90
20712;DHT22;10517;50.742;4.224;2023-11-22T12:14:29;10.30;99.90
20712;DHT22;10517;50.742;4.224;2023-11-22T12:16:54;10.60;99.90
20712;DHT22;10517;50.742;4.224;2023-11-22T12:19:22;10.80;99.90
20712;DHT22;10517;50.742;4.224;2023-11-22T12:21:48;10.90;99.90
20712;DHT22;10517;50.742;4.224;2023-11-22T12:24:14;10.80;99.90
20712;DHT22;10517;50.742;4.224;2023-11-22T12:26:45;10.60;99.90
20712;DHT22;10517;50.742;4.224;2023-11-22T12:29:12;10.50;99.90
20712;DHT22;10517;50.742;4.224;2023-11-22T12:31:44;10.60;99.90
20712;DHT22;10517;50.742;4.224;2023-11-22T12:34:12;10.70;99.90
20712;DHT22;10517;50.742;4.224;2023-11-22T12:36:40;10.60;99.90
20712;DHT22;10517;50.742;4.224;2023-11-22T12:39:10;10.70;99.90
20712;DHT22;10517;50.742;4.224;2023-11-22T12:41:52;10.70;99.90
20712;DHT22;10517;50.742;4.224;2023-11-22T12:44:18;10.70;99.90
20712;DHT22;10517;50.742;4.224;2023-11-22T12:46:49;10.80;99.90
20712;DHT22;10517;50.742;4.224;2023-11-22T12:49:21;10.80;99.90
20712;DHT22;10517;50.742;4.224;2023-11-22T12:51:52;10.60;99.90
20712;DHT22;10517;50.742;4.224;2023-11-22T12:54:18;10.60;99.90
20712;DHT22;10517;50.742;4.224;2023-11-22T12:56:50;10.60;99.90
20712;DHT22;10517;50.742;4.224;2023-11-22T12:59:16;10.60;99.90
20712;DHT22;10517;50.742;4.224;2023-11-22T13:01:43;10.60;99.90
20712;DHT22;10517;50.742;4.224;2023-11-22T13:04:09;10.50;99.90
20712;DHT22;10517;50.742;4.224;2023-11-22T13:06:35;10.50;99.90
20712;DHT22;10517;50.742;4.224;2023-11-22T13:09:01;10.40;99.90
20712;DHT22;10517;50.742;4.224;2023-11-22T13:11:26;10.40;99.90
20712;DHT22;10517;50.742;4.224;2023-11-22T13:13:52;10.30;99.90
20712;DHT22;10517;50.742;4.224;2023-11-22T13:16:18;10.10;99.90
20712;DHT22;10517;50.742;4.224;2023-11-22T13:18:44;10.10;99.90
20712;DHT22;10517;50.742;4.224;2023-11-22T13:21:10;10.20;99.90
20712;DHT22;10517;50.742;4.224;2023-11-22T13:23:36;10.10;99.90
20712;DHT22;10517;50.742;4.224;2023-11-22T13:26:01;10.10;99.90
20712;DHT22;10517;50.742;4.224;2023-11-22T13:28:27;10.10;99.90
20712;DHT22;10517;50.742;4.224;2023-11-22T13:30:53;10.10;99.90
20712;DHT22;10517;50.742;4.224;2023-11-22T13:33:19;10.10;99.90
20712;DHT22;10517;50.742;4.224;2023-11-22T13:35:45;10.10;99.90
20712;DHT22;10517;50.742;4.224;2023-11-22T13:38:12;10.10;99.90
20712;DHT22;10517;50.742;4.224;2023-11-22T13:40:39;10.20;99.90
20712;DHT22;10517;50.742;4.224;2023-11-22T13:43:06;10.50;99.90
20712;DHT22;10517;50.742;4.224;2023-11-22T13:45:32;10.80;99.90
20712;DHT22;10517;50.742;4.224;2023-11-22T13:48:00;11.10;99.90
20712;DHT22;10517;50.742;4.224;2023-11-22T13:50:30;11.20;99.90
20712;DHT22;10517;50.742;4.224;2023-11-22T13:52:56;11.40;99.90
20712;DHT22;10517;50.742;4.224;2023-11-22T13:55:23;11.60;99.90
20712;DHT22;10517;50.742;4.224;2023-11-22T13:58:07;11.60;99.90
20712;DHT22;10517;50.742;4.224;2023-11-22T14:00:34;11.40;99.90
20712;DHT22;10517;50.742;4.224;2023-11-22T14:03:01;11.40;99.90
20712;DHT22;10517;50.742;4.224;2023-11-22T14:05:32;11.00;99.90
20712;DHT22;10517;50.742;4.224;2023-11-22T14:07:59;10.70;99.90
20712;DHT22;10517;50.742;4.224;2023-11-22T14:10:25;10.40;99.90
20712;DHT22;10517;50.742;4.224;2023-11-22T14:12:51;10.30;99.90
20712;DHT22;10517;50.742;4.224;2023-11-22T14:15:17;10.10;99.90
20712;DHT22;10517;50.742;4.224;2023-11-22T14:17:44;10.00;99.90
20712;DHT22;10517;50.742;4.224;2023-11-22T14:20:11;9.80;99.90
20712;DHT22;10517;50.742;4.224;2023-11-22T14:22:37;9.80;99.90
20712;DHT22;10517;50.742;4.224;2023-11-22T14:25:05;9.70;99.90
20712;DHT22;10517;50.742;4.224;2023-11-22T14:27:40;9.80;99.90
20712;DHT22;10517;50.742;4.224;2023-11-22T14:30:13;9.90;99.90
20712;DHT22;10517;50.742;4.224;2023-11-22T14:32:43;10.00;99.90
20712;DHT22;10517;50.742;4.224;2023-11-22T14:35:09;10.20;99.90
20712;DHT22;10517;50.742;4.224;2023-11-22T14:37:35;10.30;99.90
20712;DHT22;10517;50.742;4.224;2023-11-22T14:40:03;10.30;99.90
20712;DHT22;10517;50.742;4.224;2023-11-22T14:42:30;10.30;99.90
20712;DHT22;10517;50.742;4.224;2023-11-22T14:44:57;10.40;99.90
20712;DHT22;10517;50.742;4.224;2023-11-22T14:47:22;10.30;99.90
20712;DHT22;10517;50.742;4.224;2023-11-22T14:49:54;10.10;99.90
20712;DHT22;10517;50.742;4.224;2023-11-22T14:52:20;10.00;99.90
20712;DHT22;10517;50.742;4.224;2023-11-22T14:54:47;9.80;99.90
20712;DHT22;10517;50.742;4.224;2023-11-22T14:57:13;9.60;99.90
20712;DHT22;10517;50.742;4.224;2023-11-22T14:59:40;9.60;99.90
20712;DHT22;10517;50.742;4.224;2023-11-22T15:02:07;9.50;99.90
20712;DHT22;10517;50.742;4.224;2023-11-22T15:04:37;9.50;99.90
20712;DHT22;10517;50.742;4.224;2023-11-22T15:07:04;9.60;99.90
20712;DHT22;10517;50.742;4.224;2023-11-22T15:09:30;9.50;99.90
20712;DHT22;10517;50.742;4.224;2023-11-22T15:11:59;9.50;99.90
20712;DHT22;10517;50.742;4.224;2023-11-22T15:14:28;9.50;99.90
20712;DHT22;10517;50.742;4.224;2023-11-22T15:16:53;9.50;99.90
20712;DHT22;10517;50.742;4.224;2023-11-22T15:19:20;9.40;99.90
20712;DHT22;10517;50.742;4.224;2023-11-22T15:21:47;9.30;99.90
20712;DHT22;10517;50.742;4.224;2023-11-22T15:24:13;9.30;99.90
20712;DHT22;10517;50.742;4.224;2023-11-22T15:26:39;9.20;99.90
20712;DHT22;10517;50.742;4.224;2023-11-22T15:29:05;9.20;99.90
20712;DHT22;10517;50.742;4.224;2023-11-22T15:31:31;9.20;99.90
20712;DHT22;10517;50.742;4.224;2023-11-22T15:33:57;9.20;99.90
20712;DHT22;10517;50.742;4.224;2023-11-22T15:36:23;9.20;99.90
20712;DHT22;10517;50.742;4.224;2023-11-22T15:38:48;9.20;99.90
20712;DHT22;10517;50.742;4.224;2023-11-22T15:41:14;9.10;99.90
20712;DHT22;10517;50.742;4.224;2023-11-22T15:43:40;9.10;99.90